Time;durP1;ratioP1;P1;durP2;ratioP2;P2;SDS_P1;SDS_P2;PMS_P1;PMS_P2;Temp;Humidity;BMP_temperature;BMP_pressure;BME280_temperature;BME280_humidity;BME280_pressure;Samples;Min_cycle;Max_cycle;Signal;HPM_P1;HPM_P2
2021/05/20 00:02:13;;;;;;;10.37;6.73;;;;;;;;;;5037132;28;20286;-60
2021/05/20 00:04:40;;;;;;;9.30;6.20;;;;;;;;;;5042440;28;20194;-63
2021/05/20 00:07:06;;;;;;;7.27;6.57;;;;;;;;;;5039626;28;20198;-61
2021/05/20 00:09:31;;;;;;;8.63;6.60;;;;;;;;;;5045150;28;20213;-60
2021/05/20 00:11:59;;;;;;;8.73;6.93;;;;;;;;;;5046976;28;20220;-59
2021/05/20 00:14:27;;;;;;;7.47;6.43;;;;;;;;;;5039579;28;20201;-61
2021/05/20 00:16:55;;;;;;;6.93;5.80;;;;;;;;;;5043741;28;20205;-60
2021/05/20 00:19:26;;;;;;;8.90;6.40;;;;;;;;;;5052742;28;20182;-61
2021/05/20 00:21:51;;;;;;;6.30;5.70;;;;;;;;;;5044288;28;20216;-60
2021/05/20 00:24:17;;;;;;;6.60;5.80;;;;;;;;;;5045360;28;20564;-61
2021/05/20 00:26:44;;;;;;;7.03;5.77;;;;;;;;;;5044339;28;20581;-59
2021/05/20 00:29:10;;;;;;;6.67;5.73;;;;;;;;;;5038537;28;20229;-58
2021/05/20 00:31:37;;;;;;;8.53;5.93;;;;;;;;;;5047245;28;20202;-59
2021/05/20 00:34:05;;;;;;;8.30;6.40;;;;;;;;;;5046618;28;20189;-60
2021/05/20 00:36:32;;;;;;;6.60;6.00;;;;;;;;;;5041954;28;20680;-59
2021/05/20 00:38:58;;;;;;;6.50;5.90;;;;;;;;;;5039988;28;20665;-58
2021/05/20 00:41:26;;;;;;;6.57;5.87;;;;;;;;;;5046962;28;20240;-58
2021/05/20 00:43:56;;;;;;;6.73;6.03;;;;;;;;;;5045698;28;20692;-61
2021/05/20 00:46:21;;;;;;;7.73;6.00;;;;;;;;;;5045726;28;20444;-59
2021/05/20 00:48:46;;;;;;;7.67;6.17;;;;;;;;;;5047273;28;20635;-61
2021/05/20 00:51:14;;;;;;;7.17;6.47;;;;;;;;;;5041333;28;20218;-61
2021/05/20 00:53:42;;;;;;;8.63;6.37;;;;;;;;;;5054423;28;20204;-59
2021/05/20 00:56:10;;;;;;;7.10;6.10;;;;;;;;;;5040747;28;20195;-58
2021/05/20 00:58:42;;;;;;;8.40;6.33;;;;;;;;;;5039685;28;20593;-61
2021/05/20 01:01:10;;;;;;;7.67;6.20;;;;;;;;;;5041620;28;20304;-59
2021/05/20 01:03:39;;;;;;;6.93;6.23;;;;;;;;;;5045015;28;20708;-59
2021/05/20 01:06:12;;;;;;;8.43;6.47;;;;;;;;;;5047328;28;20185;-62
2021/05/20 01:08:37;;;;;;;7.30;6.60;;;;;;;;;;5047797;28;20670;-58
2021/05/20 01:11:05;;;;;;;7.07;6.37;;;;;;;;;;5039948;28;20213;-61
2021/05/20 01:13:30;;;;;;;8.57;7.00;;;;;;;;;;5033662;28;20225;-63
2021/05/20 01:15:58;;;;;;;10.53;6.73;;;;;;;;;;5041393;28;20213;-60
2021/05/20 01:18:26;;;;;;;8.57;6.63;;;;;;;;;;5045143;28;20209;-60
2021/05/20 01:20:51;;;;;;;7.67;6.47;;;;;;;;;;5038828;28;20248;-60
2021/05/20 01:23:19;;;;;;;6.77;6.07;;;;;;;;;;5043198;28;20198;-60
2021/05/20 01:25:49;;;;;;;6.97;6.23;;;;;;;;;;5044217;28;20599;-59
2021/05/20 01:28:17;;;;;;;7.83;6.37;;;;;;;;;;5039384;28;20654;-60
2021/05/20 01:30:48;;;;;;;6.40;5.43;;;;;;;;;;5044897;28;20301;-58
2021/05/20 01:33:16;;;;;;;6.50;5.90;;;;;;;;;;5041963;28;20579;-58
2021/05/20 01:35:44;;;;;;;7.63;6.43;;;;;;;;;;5045834;28;20193;-58
2021/05/20 01:41:03;;;;;;;8.33;5.80;;;;;;;;;;5046959;28;20271;-61
2021/05/20 01:43:29;;;;;;;7.73;6.60;;;;;;;;;;5048116;28;20190;-59
2021/05/20 01:45:59;;;;;;;7.40;5.73;;;;;;;;;;5049578;28;20209;-59
2021/05/20 01:48:27;;;;;;;6.53;5.63;;;;;;;;;;5045314;28;20214;-59
2021/05/20 01:50:59;;;;;;;6.63;5.90;;;;;;;;;;5045908;28;20224;-58
2021/05/20 01:53:24;;;;;;;10.03;6.40;;;;;;;;;;5047664;28;20197;-59
2021/05/20 01:55:52;;;;;;;10.10;6.50;;;;;;;;;;5044282;28;20182;-59
2021/05/20 01:58:21;;;;;;;7.60;6.20;;;;;;;;;;5045391;28;20209;-60
2021/05/20 02:00:50;;;;;;;6.50;5.90;;;;;;;;;;5042673;28;20593;-59
2021/05/20 02:03:18;;;;;;;8.10;6.60;;;;;;;;;;5043711;28;20335;-59
2021/05/20 02:05:48;;;;;;;6.20;5.60;;;;;;;;;;5050733;28;20181;-60
2021/05/20 02:08:14;;;;;;;7.23;6.40;;;;;;;;;;5041048;28;20579;-65
2021/05/20 02:10:40;;;;;;;7.20;6.50;;;;;;;;;;5039189;28;20223;-62
2021/05/20 02:13:11;;;;;;;7.23;6.53;;;;;;;;;;5045909;28;20194;-60
2021/05/20 02:15:37;;;;;;;7.90;6.53;;;;;;;;;;5048966;28;20190;-60
2021/05/20 02:18:06;;;;;;;7.10;6.37;;;;;;;;;;5043160;28;20200;-60
2021/05/20 02:20:33;;;;;;;7.63;6.90;;;;;;;;;;5044752;28;20218;-59
2021/05/20 02:22:58;;;;;;;8.00;6.47;;;;;;;;;;5042949;28;20201;-61
2021/05/20 02:25:26;;;;;;;8.67;6.57;;;;;;;;;;5045922;28;20198;-59
2021/05/20 02:27:51;;;;;;;8.87;7.03;;;;;;;;;;5045193;28;20588;-58
2021/05/20 02:30:20;;;;;;;7.27;6.57;;;;;;;;;;5044895;28;20281;-61
2021/05/20 02:32:50;;;;;;;8.97;7.03;;;;;;;;;;5049410;28;20252;-59
2021/05/20 02:35:16;;;;;;;7.63;6.63;;;;;;;;;;5041271;28;20199;-58
2021/05/20 02:37:44;;;;;;;7.27;6.07;;;;;;;;;;5045467;28;20615;-61
2021/05/20 02:40:11;;;;;;;7.27;6.57;;;;;;;;;;5047677;28;20224;-59
2021/05/20 02:42:41;;;;;;;9.03;6.33;;;;;;;;;;5044836;28;20192;-60
2021/05/20 02:45:10;;;;;;;7.37;6.67;;;;;;;;;;5045345;28;20193;-63
2021/05/20 02:47:40;;;;;;;8.10;6.90;;;;;;;;;;5046647;28;20379;-60
2021/05/20 02:50:11;;;;;;;9.10;7.30;;;;;;;;;;5046683;28;20252;-61
2021/05/20 02:52:43;;;;;;;8.10;7.27;;;;;;;;;;5042205;28;20202;-59
2021/05/20 02:55:11;;;;;;;9.53;7.10;;;;;;;;;;5043408;28;20646;-57
2021/05/20 02:57:36;;;;;;;9.40;7.37;;;;;;;;;;5062215;23;20280;-84
2021/05/20 03:00:04;;;;;;;11.07;7.37;;;;;;;;;;5027110;28;20653;-86
2021/05/20 03:02:29;;;;;;;9.70;7.43;;;;;;;;;;5026949;28;20186;-86
2021/05/20 03:04:55;;;;;;;9.50;7.50;;;;;;;;;;5027102;28;20498;-87
2021/05/20 03:07:20;;;;;;;9.70;7.77;;;;;;;;;;5022052;28;20237;-86
2021/05/20 03:09:45;;;;;;;12.73;9.00;;;;;;;;;;5018687;28;20648;-86
2021/05/20 03:12:11;;;;;;;11.03;7.93;;;;;;;;;;5019342;28;20805;-84
2021/05/20 03:14:36;;;;;;;10.97;8.07;;;;;;;;;;5017456;28;20245;-83
2021/05/20 03:17:04;;;;;;;12.27;8.73;;;;;;;;;;5023293;28;20710;-85
2021/05/20 03:19:29;;;;;;;12.40;8.43;;;;;;;;;;5024434;28;20180;-87
2021/05/20 03:21:57;;;;;;;12.37;9.63;;;;;;;;;;5022197;28;20253;-87
2021/05/20 03:24:22;;;;;;;12.80;9.53;;;;;;;;;;5019457;28;20194;-87
2021/05/20 03:26:47;;;;;;;11.53;9.53;;;;;;;;;;5027073;28;20198;-87
2021/05/20 03:29:13;;;;;;;11.07;8.37;;;;;;;;;;5021942;28;20229;-86
2021/05/20 03:31:39;;;;;;;9.90;7.23;;;;;;;;;;5020014;28;20236;-86
2021/05/20 03:34:05;;;;;;;13.37;7.37;;;;;;;;;;5020835;28;20290;-84
2021/05/20 03:36:30;;;;;;;12.57;7.20;;;;;;;;;;5020641;28;20773;-83
2021/05/20 03:38:58;;;;;;;9.60;7.97;;;;;;;;;;5021845;28;20186;-86
2021/05/20 03:41:23;;;;;;;14.30;7.60;;;;;;;;;;5015098;28;20250;-86
2021/05/20 03:43:49;;;;;;;8.70;6.93;;;;;;;;;;5027132;28;20621;-87
2021/05/20 03:46:14;;;;;;;8.77;7.10;;;;;;;;;;5019437;28;20210;-85
2021/05/20 03:48:39;;;;;;;9.37;7.03;;;;;;;;;;5022324;28;20262;-82
2021/05/20 03:51:04;;;;;;;10.67;7.40;;;;;;;;;;5021707;28;20190;-85
2021/05/20 03:53:31;;;;;;;8.20;6.70;;;;;;;;;;5019816;28;20257;-86
2021/05/20 03:56:00;;;;;;;9.73;6.27;;;;;;;;;;5022524;28;20207;-85
2021/05/20 03:58:28;;;;;;;8.93;6.17;;;;;;;;;;5022377;28;20191;-87
2021/05/20 04:00:59;;;;;;;9.23;6.00;;;;;;;;;;5015442;28;20211;-86
2021/05/20 04:03:32;;;;;;;10.47;6.97;;;;;;;;;;5026081;28;20288;-86
2021/05/20 04:05:59;;;;;;;12.00;6.50;;;;;;;;;;5018325;28;20294;-86
2021/05/20 04:08:24;;;;;;;11.17;6.30;;;;;;;;;;5024910;28;20215;-84
2021/05/20 04:10:52;;;;;;;10.57;7.40;;;;;;;;;;5024865;28;20236;-86
2021/05/20 04:13:28;;;;;;;12.50;8.80;;;;;;;;;;5014075;28;20197;-86
2021/05/20 04:15:54;;;;;;;9.53;7.97;;;;;;;;;;5021204;28;20202;-86
2021/05/20 04:18:20;;;;;;;12.17;8.83;;;;;;;;;;5016255;28;20888;-86
2021/05/20 04:20:45;;;;;;;11.93;9.53;;;;;;;;;;5021430;28;20206;-86
2021/05/20 04:23:10;;;;;;;12.67;9.60;;;;;;;;;;5017169;28;20195;-86
2021/05/20 04:25:36;;;;;;;11.30;9.23;;;;;;;;;;5017430;28;20273;-87
2021/05/20 04:28:01;;;;;;;13.10;9.77;;;;;;;;;;5018319;28;20219;-85
2021/05/20 04:30:26;;;;;;;9.43;7.57;;;;;;;;;;5017010;28;20229;-85
2021/05/20 04:32:53;;;;;;;9.13;7.03;;;;;;;;;;5018779;28;20574;-86
2021/05/20 04:35:19;;;;;;;8.57;7.13;;;;;;;;;;5018825;28;20182;-85
2021/05/20 04:37:44;;;;;;;10.70;7.93;;;;;;;;;;5019737;28;20190;-86
2021/05/20 04:40:10;;;;;;;11.07;8.37;;;;;;;;;;5013507;28;20264;-86
2021/05/20 04:42:36;;;;;;;9.50;7.37;;;;;;;;;;5016449;28;20179;-85
2021/05/20 04:45:01;;;;;;;10.03;7.17;;;;;;;;;;5023434;28;20248;-85
2021/05/20 04:47:26;;;;;;;10.50;8.00;;;;;;;;;;5014837;28;20222;-85
2021/05/20 04:49:51;;;;;;;10.90;7.53;;;;;;;;;;5016760;28;20191;-86
2021/05/20 04:52:17;;;;;;;10.30;8.57;;;;;;;;;;5018142;28;20270;-85
2021/05/20 04:54:45;;;;;;;11.13;7.90;;;;;;;;;;5018408;28;20187;-85
2021/05/20 04:57:10;;;;;;;11.83;8.50;;;;;;;;;;5026031;28;20667;-85
2021/05/20 04:59:35;;;;;;;10.73;8.63;;;;;;;;;;5020388;28;20183;-85
2021/05/20 05:02:00;;;;;;;13.03;9.70;;;;;;;;;;5023696;28;20222;-86
2021/05/20 05:04:26;;;;;;;12.03;10.10;;;;;;;;;;5025455;28;20213;-85
2021/05/20 05:06:51;;;;;;;12.13;10.20;;;;;;;;;;5026420;28;20704;-85
2021/05/20 05:09:16;;;;;;;15.20;11.20;;;;;;;;;;5026367;28;20245;-86
2021/05/20 05:11:44;;;;;;;12.97;11.10;;;;;;;;;;5027596;28;20201;-86
2021/05/20 05:14:09;;;;;;;18.00;12.43;;;;;;;;;;5017991;28;20203;-86
2021/05/20 05:16:36;;;;;;;15.20;10.67;;;;;;;;;;5021167;28;20314;-88
2021/05/20 05:19:06;;;;;;;14.47;11.17;;;;;;;;;;5014235;28;20200;-85
2021/05/20 05:21:32;;;;;;;13.23;11.33;;;;;;;;;;5024571;28;20559;-86
2021/05/20 05:23:57;;;;;;;15.10;11.93;;;;;;;;;;5023918;28;20191;-85
2021/05/20 05:26:23;;;;;;;15.53;11.90;;;;;;;;;;5020144;28;20297;-81
2021/05/20 05:28:48;;;;;;;15.73;12.20;;;;;;;;;;5020047;28;20206;-87
2021/05/20 05:31:16;;;;;;;16.93;12.07;;;;;;;;;;5024203;28;20218;-87
2021/05/20 05:33:43;;;;;;;18.73;12.67;;;;;;;;;;5019168;28;20289;-85
2021/05/20 05:36:09;;;;;;;16.00;13.20;;;;;;;;;;5016455;28;20222;-86
2021/05/20 05:38:34;;;;;;;15.03;12.67;;;;;;;;;;5022838;28;20195;-88
2021/05/20 05:40:59;;;;;;;16.13;13.20;;;;;;;;;;5023457;28;20186;-88
2021/05/20 05:43:24;;;;;;;16.27;12.33;;;;;;;;;;5017256;28;20195;-86
2021/05/20 05:45:50;;;;;;;18.87;13.37;;;;;;;;;;5031508;23;20754;-87
2021/05/20 05:48:15;;;;;;;17.23;13.37;;;;;;;;;;5044325;28;20694;-86
2021/05/20 05:50:41;;;;;;;17.77;13.40;;;;;;;;;;5051555;28;20190;-88
2021/05/20 05:53:07;;;;;;;16.10;12.80;;;;;;;;;;5047775;28;20668;-87
2021/05/20 05:55:33;;;;;;;19.60;15.23;;;;;;;;;;5048695;28;20296;-87
2021/05/20 05:57:58;;;;;;;21.10;18.73;;;;;;;;;;5027842;28;20180;-88
2021/05/20 06:00:24;;;;;;;21.23;18.97;;;;;;;;;;5027627;28;20574;-87
2021/05/20 06:02:49;;;;;;;21.80;18.10;;;;;;;;;;5025781;28;20194;-88
2021/05/20 06:05:14;;;;;;;22.67;19.20;;;;;;;;;;5026512;28;20227;-88
2021/05/20 06:07:47;;;;;;;23.20;20.70;;;;;;;;;;5030077;28;20195;-87
2021/05/20 06:10:12;;;;;;;25.27;20.27;;;;;;;;;;5028240;28;20234;-88
2021/05/20 06:12:41;;;;;;;24.90;19.27;;;;;;;;;;5026505;28;20294;-87
2021/05/20 06:15:07;;;;;;;23.50;20.53;;;;;;;;;;5028234;28;20190;-86
2021/05/20 06:17:36;;;;;;;27.10;20.27;;;;;;;;;;5029452;28;20342;-83
2021/05/20 06:20:03;;;;;;;25.67;21.07;;;;;;;;;;5028627;28;20229;-82
2021/05/20 06:22:28;;;;;;;25.43;21.37;;;;;;;;;;5030225;28;20198;-84
2021/05/20 06:24:56;;;;;;;26.80;23.90;;;;;;;;;;5030413;28;20241;-81
2021/05/20 06:27:22;;;;;;;24.70;21.47;;;;;;;;;;5026961;28;20224;-80
2021/05/20 06:29:48;;;;;;;23.67;21.00;;;;;;;;;;5023781;28;20582;-82
2021/05/20 06:32:15;;;;;;;22.00;19.57;;;;;;;;;;5028328;28;20209;-81
2021/05/20 06:34:40;;;;;;;22.27;19.97;;;;;;;;;;5025079;28;20198;-81
2021/05/20 06:37:06;;;;;;;23.77;20.43;;;;;;;;;;5023289;28;20215;-81
2021/05/20 06:39:31;;;;;;;25.83;21.67;;;;;;;;;;5027082;28;20186;-83
2021/05/20 06:41:56;;;;;;;24.30;21.13;;;;;;;;;;5028083;28;20312;-83
2021/05/20 06:44:22;;;;;;;24.17;21.60;;;;;;;;;;5028826;28;20189;-81
2021/05/20 06:46:47;;;;;;;23.67;21.27;;;;;;;;;;5027216;28;20289;-80
2021/05/20 06:49:13;;;;;;;24.47;21.90;;;;;;;;;;5027109;28;20349;-80
2021/05/20 06:51:38;;;;;;;22.53;20.13;;;;;;;;;;5026945;28;20922;-80
2021/05/20 06:54:04;;;;;;;23.70;20.17;;;;;;;;;;5027676;28;20190;-81
2021/05/20 06:56:30;;;;;;;22.13;19.93;;;;;;;;;;5027549;28;20760;-80
2021/05/20 07:01:45;;;;;;;21.77;19.57;;;;;;;;;;5026985;28;20682;-80
2021/05/20 07:04:12;;;;;;;21.20;19.03;;;;;;;;;;5020138;28;20735;-80
2021/05/20 07:06:43;;;;;;;19.60;17.67;;;;;;;;;;5034901;22;20232;-59
2021/05/20 07:09:08;;;;;;;20.10;18.10;;;;;;;;;;5027177;28;20304;-58
2021/05/20 07:11:33;;;;;;;18.77;17.07;;;;;;;;;;5040606;28;20232;-58
2021/05/20 07:14:01;;;;;;;19.43;17.53;;;;;;;;;;5027992;28;20197;-59
2021/05/20 07:16:29;;;;;;;18.07;16.20;;;;;;;;;;5026636;28;20306;-62
2021/05/20 07:18:54;;;;;;;18.47;15.70;;;;;;;;;;5027558;28;20666;-59
2021/05/20 07:21:20;;;;;;;18.27;16.47;;;;;;;;;;5022569;28;20276;-60
2021/05/20 07:23:47;;;;;;;16.47;14.87;;;;;;;;;;5026433;28;20186;-60
2021/05/20 07:26:15;;;;;;;14.30;12.73;;;;;;;;;;5027595;28;20541;-60
2021/05/20 07:28:40;;;;;;;12.70;11.48;;;;;;;;;;5027343;28;20210;-61
2021/05/20 07:31:05;;;;;;;12.70;11.40;;;;;;;;;;5025669;28;20221;-62
2021/05/20 07:33:31;;;;;;;12.05;10.85;;;;;;;;;;5022599;28;20557;-61
2021/05/20 07:35:58;;;;;;;12.13;10.10;;;;;;;;;;5024349;28;20217;-65
2021/05/20 07:38:24;;;;;;;12.13;11.00;;;;;;;;;;5023250;28;20193;-63
2021/05/20 07:40:52;;;;;;;12.52;11.23;;;;;;;;;;5022569;28;20221;-61
2021/05/20 07:43:19;;;;;;;10.48;9.55;;;;;;;;;;5023302;28;20206;-62
2021/05/20 07:45:47;;;;;;;11.38;10.27;;;;;;;;;;5022514;28;20209;-61
2021/05/20 07:48:15;;;;;;;11.18;10.18;;;;;;;;;;5022521;28;20290;-62
2021/05/20 07:50:43;;;;;;;11.13;10.15;;;;;;;;;;5023767;28;20304;-63
2021/05/20 07:53:11;;;;;;;9.07;8.27;;;;;;;;;;5024927;28;20194;-62
2021/05/20 07:55:41;;;;;;;10.25;9.27;;;;;;;;;;5025734;28;20217;-62
2021/05/20 07:58:06;;;;;;;12.65;10.18;;;;;;;;;;5022811;28;20182;-63
2021/05/20 08:00:34;;;;;;;10.13;9.23;;;;;;;;;;5024265;28;20203;-61
2021/05/20 08:05:31;;;;;;;9.45;8.45;;;;;;;;;;5024928;28;20286;-60
2021/05/20 08:08:18;;;;;;;8.05;7.32;;;;;;;;;;5020721;28;20245;-59
2021/05/20 08:10:51;;;;;;;7.43;6.82;;;;;;;;;;5017003;28;20206;-65
2021/05/20 08:13:17;;;;;;;7.95;7.15;;;;;;;;;;5018680;28;20201;-60
2021/05/20 08:15:45;;;;;;;8.15;7.35;;;;;;;;;;5026182;28;20175;-61
2021/05/20 08:18:16;;;;;;;8.23;7.00;;;;;;;;;;5023067;28;20210;-61
2021/05/20 08:20:44;;;;;;;7.18;6.57;;;;;;;;;;5020366;28;20280;-60
2021/05/20 08:23:11;;;;;;;6.80;6.18;;;;;;;;;;5021465;28;20209;-60
2021/05/20 08:25:38;;;;;;;7.13;6.45;;;;;;;;;;5025768;28;20197;-64
2021/05/20 08:28:06;;;;;;;6.88;6.18;;;;;;;;;;5019498;28;20300;-61
2021/05/20 08:30:34;;;;;;;10.27;9.27;;;;;;;;;;5022731;28;20257;-64
2021/05/20 08:32:59;;;;;;;7.35;6.65;;;;;;;;;;5022156;28;20221;-66
2021/05/20 08:35:27;;;;;;;25.38;12.15;;;;;;;;;;5022844;28;20252;-61
2021/05/20 08:37:55;;;;;;;6.88;6.28;;;;;;;;;;5021441;28;20187;-64
2021/05/20 08:40:21;;;;;;;6.63;6.05;;;;;;;;;;5008337;28;20265;-65
2021/05/20 08:42:49;;;;;;;9.23;6.38;;;;;;;;;;5015349;28;20203;-63
2021/05/20 08:45:20;;;;;;;6.88;6.18;;;;;;;;;;5017952;28;20229;-62
2021/05/20 08:47:49;;;;;;;7.07;6.32;;;;;;;;;;5019648;28;20309;-60
2021/05/20 08:50:18;;;;;;;6.55;6.05;;;;;;;;;;5022197;28;20585;-61
2021/05/20 08:52:49;;;;;;;6.47;5.75;;;;;;;;;;5014927;28;20211;-61
2021/05/20 08:55:28;;;;;;;5.85;5.07;;;;;;;;;;5022212;28;20205;-63
2021/05/20 08:58:00;;;;;;;5.53;5.03;;;;;;;;;;5022293;28;20182;-59
2021/05/20 09:00:27;;;;;;;7.22;5.05;;;;;;;;;;5026705;28;20214;-59
2021/05/20 09:03:02;;;;;;;6.85;5.13;;;;;;;;;;5026532;28;20210;-56
2021/05/20 09:05:27;;;;;;;6.15;5.65;;;;;;;;;;5020655;28;20191;-55
2021/05/20 09:08:00;;;;;;;6.53;5.10;;;;;;;;;;5027580;28;20219;-58
2021/05/20 09:10:30;;;;;;;6.15;4.50;;;;;;;;;;5025108;28;20214;-56
2021/05/20 09:13:05;;;;;;;6.05;5.45;;;;;;;;;;5021722;28;20198;-64
2021/05/20 09:15:38;;;;;;;5.30;4.32;;;;;;;;;;5025650;28;20186;-61
2021/05/20 09:18:09;;;;;;;5.47;4.88;;;;;;;;;;5023838;28;20170;-57
2021/05/20 09:20:56;;;;;;;4.90;3.92;;;;;;;;;;5024043;28;20745;-60
2021/05/20 09:23:28;;;;;;;5.22;4.78;;;;;;;;;;5043669;28;20182;-59
2021/05/20 09:26:03;;;;;;;5.78;3.28;;;;;;;;;;5022261;28;20780;-59
2021/05/20 09:28:43;;;;;;;4.03;3.45;;;;;;;;;;5022963;28;20206;-59
2021/05/20 09:31:15;;;;;;;5.97;3.90;;;;;;;;;;5024794;28;20627;-60
2021/05/20 09:33:58;;;;;;;4.75;3.92;;;;;;;;;;5023271;28;20191;-61
2021/05/20 09:36:26;;;;;;;6.60;4.03;;;;;;;;;;5024062;28;20281;-65
2021/05/20 09:39:13;;;;;;;4.82;2.75;;;;;;;;;;5024087;28;20732;-58
2021/05/20 09:41:38;;;;;;;6.20;3.10;;;;;;;;;;5023248;28;20568;-60
2021/05/20 09:44:28;;;;;;;4.47;2.92;;;;;;;;;;5023356;28;20182;-59
2021/05/20 09:46:53;;;;;;;4.53;3.03;;;;;;;;;;5023068;28;20888;-62
2021/05/20 09:49:21;;;;;;;6.85;3.28;;;;;;;;;;5022927;28;20233;-60
2021/05/20 09:51:48;;;;;;;3.97;2.60;;;;;;;;;;5022086;28;20193;-59
2021/05/20 09:54:37;;;;;;;4.15;2.40;;;;;;;;;;5027038;28;20179;-61
2021/05/20 09:57:26;;;;;;;2.95;2.42;;;;;;;;;;5025769;28;20198;-63
2021/05/20 10:02:21;;;;;;;2.47;2.28;;;;;;;;;;5065259;28;20738;-61
2021/05/20 10:04:51;;;;;;;5.65;2.50;;;;;;;;;;5069362;28;20189;-62
2021/05/20 10:07:28;;;;;;;4.68;3.15;;;;;;;;;;5067308;28;20841;-63
2021/05/20 10:09:59;;;;;;;5.78;2.80;;;;;;;;;;5068853;28;20278;-63
2021/05/20 10:12:27;;;;;;;3.70;2.45;;;;;;;;;;5065380;28;20185;-64
2021/05/20 10:14:52;;;;;;;9.82;2.08;;;;;;;;;;5049033;28;20209;-62
2021/05/20 10:17:19;;;;;;;1.65;1.50;;;;;;;;;;5064939;28;20227;-60
2021/05/20 10:19:47;;;;;;;1.70;1.60;;;;;;;;;;5070138;28;20180;-60
2021/05/20 10:22:14;;;;;;;3.20;2.10;;;;;;;;;;5062843;28;20217;-66
2021/05/20 10:24:43;;;;;;;2.40;1.60;;;;;;;;;;5062668;28;20232;-60
2021/05/20 10:27:12;;;;;;;4.55;1.73;;;;;;;;;;5067315;28;20185;-61
2021/05/20 10:29:37;;;;;;;1.90;1.60;;;;;;;;;;5068962;28;20550;-63
2021/05/20 10:32:06;;;;;;;2.17;1.45;;;;;;;;;;5063492;28;20189;-61
2021/05/20 10:34:36;;;;;;;2.28;1.50;;;;;;;;;;5049198;28;20799;-62
2021/05/20 10:37:05;;;;;;;1.45;1.35;;;;;;;;;;5047921;28;20185;-61
2021/05/20 10:39:30;;;;;;;2.03;1.30;;;;;;;;;;5065810;28;20181;-61
2021/05/20 10:41:56;;;;;;;2.20;1.30;;;;;;;;;;5046161;28;20204;-62
2021/05/20 10:44:27;;;;;;;3.03;1.48;;;;;;;;;;5066438;28;20529;-63
2021/05/20 10:47:04;;;;;;;2.40;1.50;;;;;;;;;;5069527;28;20199;-62
2021/05/20 10:49:54;;;;;;;2.03;1.40;;;;;;;;;;5049489;28;20345;-60
2021/05/20 10:52:34;;;;;;;2.55;1.30;;;;;;;;;;5044048;28;20192;-62
2021/05/20 10:55:01;;;;;;;3.63;1.45;;;;;;;;;;5061904;28;20196;-64
2021/05/20 10:58:02;;;;;;;1.20;1.10;;;;;;;;;;5058738;28;20669;-59
2021/05/20 11:00:33;;;;;;;1.58;1.20;;;;;;;;;;4982908;28;20710;-59
2021/05/20 11:03:03;;;;;;;4.25;1.50;;;;;;;;;;5034746;28;20186;-61
2021/05/20 11:05:44;;;;;;;1.73;1.35;;;;;;;;;;5030999;28;20255;-62
2021/05/20 11:08:30;;;;;;;1.63;1.10;;;;;;;;;;5062538;28;20245;-61
2021/05/20 11:10:55;;;;;;;3.05;1.58;;;;;;;;;;5058206;28;20248;-61
2021/05/20 11:13:38;;;;;;;1.45;1.33;;;;;;;;;;5065932;28;20677;-64
2021/05/20 11:16:15;;;;;;;1.40;1.23;;;;;;;;;;5064563;28;20190;-61
2021/05/20 11:18:47;;;;;;;3.80;2.00;;;;;;;;;;5060885;28;20660;-59
2021/05/20 11:21:14;;;;;;;5.03;1.83;;;;;;;;;;5060397;28;20214;-60
2021/05/20 11:23:40;;;;;;;3.40;1.92;;;;;;;;;;5045560;28;20217;-61
2021/05/20 11:26:06;;;;;;;2.70;1.90;;;;;;;;;;5062822;28;20665;-61
2021/05/20 11:28:42;;;;;;;4.85;2.03;;;;;;;;;;5062249;28;20574;-60
2021/05/20 11:31:08;;;;;;;2.33;1.52;;;;;;;;;;5047439;28;20201;-61
2021/05/20 11:33:47;;;;;;;2.03;1.58;;;;;;;;;;5064846;28;20182;-61
2021/05/20 11:36:13;;;;;;;2.20;1.58;;;;;;;;;;5057709;28;20198;-61
2021/05/20 11:38:57;;;;;;;1.65;1.52;;;;;;;;;;5066582;28;20645;-60
2021/05/20 11:41:30;;;;;;;3.58;1.85;;;;;;;;;;5062437;28;20216;-60
2021/05/20 11:44:12;;;;;;;2.13;1.90;;;;;;;;;;5067689;28;20263;-61
2021/05/20 11:46:42;;;;;;;3.42;1.88;;;;;;;;;;5067604;28;20539;-61
2021/05/20 11:49:21;;;;;;;3.50;1.90;;;;;;;;;;5064629;28;20439;-62
2021/05/20 11:51:58;;;;;;;3.35;1.95;;;;;;;;;;5067418;28;20447;-60
2021/05/20 11:54:27;;;;;;;2.72;1.80;;;;;;;;;;5065424;28;20564;-64
2021/05/20 11:56:57;;;;;;;2.22;1.70;;;;;;;;;;5056841;28;20181;-63
2021/05/20 11:59:59;;;;;;;1.70;1.60;;;;;;;;;;5066945;28;20200;-61
2021/05/20 12:02:29;;;;;;;2.22;1.58;;;;;;;;;;5063705;28;20208;-61
2021/05/20 12:05:06;;;;;;;2.90;1.58;;;;;;;;;;5063983;28;20185;-60
2021/05/20 12:07:33;;;;;;;2.75;1.70;;;;;;;;;;5060800;28;20200;-59
2021/05/20 12:10:20;;;;;;;5.40;2.30;;;;;;;;;;5048023;28;20205;-59
2021/05/20 12:12:53;;;;;;;2.53;1.67;;;;;;;;;;5045288;28;20675;-60
2021/05/20 12:15:22;;;;;;;7.45;1.70;;;;;;;;;;5066307;28;20189;-59
2021/05/20 12:17:48;;;;;;;2.17;1.65;;;;;;;;;;5048632;28;20225;-59
2021/05/20 12:20:19;;;;;;;6.20;1.40;;;;;;;;;;5065881;28;20193;-59
2021/05/20 12:22:48;;;;;;;2.80;1.70;;;;;;;;;;5060881;28;20216;-58
2021/05/20 12:25:17;;;;;;;7.13;1.52;;;;;;;;;;5062130;28;20196;-60
2021/05/20 12:27:45;;;;;;;1.50;1.40;;;;;;;;;;5064868;28;20186;-60
2021/05/20 12:30:25;;;;;;;1.70;1.60;;;;;;;;;;5063393;28;20283;-58
2021/05/20 12:33:02;;;;;;;4.43;1.92;;;;;;;;;;5057850;28;20208;-61
2021/05/20 12:35:32;;;;;;;2.33;1.52;;;;;;;;;;5061723;28;20188;-59
2021/05/20 12:38:09;;;;;;;3.50;1.80;;;;;;;;;;5059508;28;20992;-59
2021/05/20 12:40:42;;;;;;;2.92;1.90;;;;;;;;;;5062881;28;20208;-59
2021/05/20 12:43:33;;;;;;;3.30;1.73;;;;;;;;;;5059012;28;20181;-59
2021/05/20 12:46:02;;;;;;;3.22;2.35;;;;;;;;;;5062249;28;20530;-58
2021/05/20 12:48:30;;;;;;;4.45;3.25;;;;;;;;;;5064309;28;20742;-58
2021/05/20 12:51:01;;;;;;;5.38;3.10;;;;;;;;;;5066345;28;20649;-60
2021/05/20 12:53:28;;;;;;;4.80;3.00;;;;;;;;;;5062662;28;20208;-60
2021/05/20 12:55:58;;;;;;;3.67;3.20;;;;;;;;;;5062197;28;20403;-61
2021/05/20 12:58:23;;;;;;;4.20;3.13;;;;;;;;;;5059815;28;20276;-59
2021/05/20 13:01:01;;;;;;;3.38;2.55;;;;;;;;;;5067492;28;20303;-61
2021/05/20 13:03:43;;;;;;;4.32;3.20;;;;;;;;;;5055563;28;20177;-65
2021/05/20 13:06:16;;;;;;;3.50;2.78;;;;;;;;;;5057812;28;20203;-66
2021/05/20 13:08:42;;;;;;;3.85;2.63;;;;;;;;;;5037249;28;20792;-63
2021/05/20 13:11:28;;;;;;;5.00;2.85;;;;;;;;;;5057603;28;20285;-62
2021/05/20 13:14:13;;;;;;;2.75;2.40;;;;;;;;;;5054650;28;20236;-61
2021/05/20 13:16:46;;;;;;;4.25;2.70;;;;;;;;;;5064643;28;20704;-61
2021/05/20 13:24:45;;;;;;;4.60;2.90;;;;;;;;;;5067415;28;20318;-60
2021/05/20 13:27:25;;;;;;;2.92;2.53;;;;;;;;;;5064903;28;20205;-61
2021/05/20 13:29:56;;;;;;;3.08;2.60;;;;;;;;;;5066467;28;20711;-64
2021/05/20 13:32:32;;;;;;;3.05;2.47;;;;;;;;;;5067626;28;20207;-60
2021/05/20 13:35:03;;;;;;;6.60;3.20;;;;;;;;;;5066159;28;20686;-60
2021/05/20 13:37:31;;;;;;;3.47;2.70;;;;;;;;;;5072374;28;20185;-60
2021/05/20 13:39:59;;;;;;;5.05;2.28;;;;;;;;;;5063385;28;20201;-57
2021/05/20 13:42:25;;;;;;;2.30;2.10;;;;;;;;;;5065668;28;20277;-58
2021/05/20 13:44:52;;;;;;;4.28;2.70;;;;;;;;;;5059213;28;20914;-64
2021/05/20 13:47:18;;;;;;;3.28;2.50;;;;;;;;;;5064986;28;20260;-60
2021/05/20 13:49:44;;;;;;;3.33;2.85;;;;;;;;;;5061354;28;20364;-58
2021/05/20 13:52:20;;;;;;;3.08;1.95;;;;;;;;;;5061545;28;20189;-59
2021/05/20 13:54:51;;;;;;;2.22;1.70;;;;;;;;;;5060478;28;20664;-59
2021/05/20 13:57:17;;;;;;;3.45;2.30;;;;;;;;;;5064997;28;20281;-59
2021/05/20 13:59:46;;;;;;;2.45;2.10;;;;;;;;;;5066025;28;20189;-61
2021/05/20 14:02:16;;;;;;;2.83;1.73;;;;;;;;;;5050967;28;20185;-59
2021/05/20 14:04:42;;;;;;;2.58;1.17;;;;;;;;;;5065656;28;20174;-59
2021/05/20 14:07:17;;;;;;;2.15;1.17;;;;;;;;;;5068920;28;20185;-62
2021/05/20 14:09:46;;;;;;;2.65;1.40;;;;;;;;;;5061853;28;20213;-61
2021/05/20 14:12:19;;;;;;;5.55;2.17;;;;;;;;;;5052041;28;20190;-60
2021/05/20 14:14:48;;;;;;;2.30;1.20;;;;;;;;;;5066160;28;20181;-61
2021/05/20 14:17:20;;;;;;;2.08;1.30;;;;;;;;;;5060337;28;20193;-60
2021/05/20 14:19:50;;;;;;;2.92;1.40;;;;;;;;;;5063485;28;20193;-60
2021/05/20 14:22:18;;;;;;;3.80;1.88;;;;;;;;;;5046017;28;20189;-61
2021/05/20 14:24:48;;;;;;;1.65;1.42;;;;;;;;;;5046273;28;20192;-63
2021/05/20 14:27:18;;;;;;;1.80;1.38;;;;;;;;;;5064567;28;20724;-60
2021/05/20 14:29:48;;;;;;;4.05;1.75;;;;;;;;;;5066816;28;20231;-59
2021/05/20 14:32:15;;;;;;;2.03;1.52;;;;;;;;;;5066552;28;20240;-59
2021/05/20 14:34:42;;;;;;;3.75;2.08;;;;;;;;;;5046584;28;20204;-61
2021/05/20 14:37:12;;;;;;;2.03;1.40;;;;;;;;;;5055574;28;20189;-61
2021/05/20 14:39:39;;;;;;;2.30;1.50;;;;;;;;;;5060774;28;20248;-61
2021/05/20 14:42:08;;;;;;;1.98;1.50;;;;;;;;;;5064921;28;20246;-60
2021/05/20 14:44:37;;;;;;;2.40;1.75;;;;;;;;;;5067616;28;20195;-62
2021/05/20 14:47:04;;;;;;;6.13;1.90;;;;;;;;;;5061743;28;20595;-60
2021/05/20 14:52:28;;;;;;;2.78;1.70;;;;;;;;;;5063063;28;20626;-60
2021/05/20 15:05:38;;;;;;;5.18;2.17;;;;;;;;;;5059380;28;20212;-61
2021/05/20 15:08:05;;;;;;;2.90;2.10;;;;;;;;;;5063572;28;20173;-61
2021/05/20 15:10:36;;;;;;;3.78;2.67;;;;;;;;;;5065523;28;20201;-59
2021/05/20 15:13:06;;;;;;;5.28;2.70;;;;;;;;;;5064723;28;20194;-59
2021/05/20 15:15:34;;;;;;;3.95;2.50;;;;;;;;;;5065341;28;20827;-59
2021/05/20 15:18:05;;;;;;;4.15;3.03;;;;;;;;;;5046779;28;21028;-60